Maran Castor — SXLH — position and weather

sailwx.info

Track history (hours):
 
Tides and Currents Weather Stations Pressure Air Temp Water Temp Dewpoint Dewpoint Depression Visibility Wind Speed Wind Dir Waves Ship Positions

Maran Castor

Last reported at 2016-May-30 18:06 UTC. Time now 2016-Jun-27 14:52 UTC.
Position N 01°59' E 102°13'.
Warning: this ship's position is 27 days out of date.

Length 332 m; draft 11.5 m.

Type: Tanker. MMSI: 239808000.

Date/timePositionNaut miles runAvg speedWind from/ knotsBaromVisibWave heightAir tempDewpointWater temp
2016-May-30 18:06N 01°59' E 102°13'611.0
2016-May-30 17:31N 01°56' E 102°18'1111.3
2016-May-30 16:33N 01°51' E 102°28'1311.9
2016-May-30 15:27N 01°45' E 102°40'1212.2
2016-May-30 14:30N 01°40' E 102°50'4911.3
2016-May-30 10:13N 01°13' E 103°30'710.9
2016-May-30 09:33N 01°12' E 103°37'4 4.0
2016-May-30 08:31N 01°13' E 103°41'0 0.1
2016-May-30 07:28N 01°13' E 103°41'0 0.0
2016-May-30 06:22N 01°13' E 103°41'0 0.0
2016-May-30 04:31N 01°13' E 103°41'0 0.0
2016-May-30 03:28N 01°13' E 103°41'0 0.0
2016-May-30 02:28N 01°13' E 103°41'0 0.0
2016-May-30 01:10N 01°13' E 103°41'0 0.0
2016-May-29 23:28N 01°13' E 103°41'0 0.0
2016-May-29 22:25N 01°13' E 103°41'0 0.0
2016-May-29 21:22N 01°13' E 103°41'0 0.1
2016-May-29 20:16N 01°13' E 103°41'0 0.0
2016-May-29 19:22N 01°13' E 103°41'0 0.1
2016-May-29 18:28N 01°13' E 103°41'0 0.3
2016-May-29 17:07N 01°13' E 103°41'0 0.1
2016-May-29 16:25N 01°13' E 103°41'0 0.0
2016-May-29 15:33N 01°13' E 103°41'1 0.1
2016-May-29 07:17N 01°14' E 103°41'0 0.0
2016-May-28 00:32N 01°14' E 103°41'0 0.0
2016-May-27 23:23N 01°14' E 103°41'0 0.0
2016-May-27 22:32N 01°14' E 103°41'0 0.0
2016-May-27 20:29N 01°14' E 103°41'0 0.0
2016-May-27 12:29N 01°14' E 103°41'0 0.0
2016-May-27 06:32N 01°14' E 103°41'0 0.0
2016-May-27 05:31N 01°14' E 103°41'0 0.2
2016-May-27 04:33N 01°13' E 103°41'2 1.7
2016-May-27 03:33N 01°13' E 103°39'5 4.7
2016-May-27 02:31N 01°12' E 103°35'8 7.5
2016-May-27 01:30N 01°11' E 103°27'6711.2
2016-May-26 19:29N 01°46' E 102°30'1210.5
2016-May-26 18:23N 01°51' E 102°20'  
Track history (hours):
 
Tides and Currents Weather Stations Pressure Air Temp Water Temp Dewpoint Dewpoint Depression Visibility Wind Speed Wind Dir Waves Ship Positions

Maran Castor

Last reported at 2016-May-30 18:06 UTC. Time now 2016-Jun-27 14:52 UTC.
Position N 01°59' E 102°13'.
Warning: this ship's position is 27 days out of date.

Length 332 m; draft 11.5 m.

Type: Tanker. MMSI: 239808000.

Date/timePositionNaut miles runAvg speedWind from/ knotsBaromVisibWave heightAir tempDewpointWater temp
2016-May-30 18:06N 01°59' E 102°13'611.0
2016-May-30 17:31N 01°56' E 102°18'1111.3
2016-May-30 16:33N 01°51' E 102°28'1311.9
2016-May-30 15:27N 01°45' E 102°40'1212.2
2016-May-30 14:30N 01°40' E 102°50'4911.3
2016-May-30 10:13N 01°13' E 103°30'710.9
2016-May-30 09:33N 01°12' E 103°37'4 4.0
2016-May-30 08:31N 01°13' E 103°41'0 0.1
2016-May-30 07:28N 01°13' E 103°41'0 0.0
2016-May-30 06:22N 01°13' E 103°41'0 0.0
2016-May-30 04:31N 01°13' E 103°41'0 0.0
2016-May-30 03:28N 01°13' E 103°41'0 0.0
2016-May-30 02:28N 01°13' E 103°41'0 0.0
2016-May-30 01:10N 01°13' E 103°41'0 0.0
2016-May-29 23:28N 01°13' E 103°41'0 0.0
2016-May-29 22:25N 01°13' E 103°41'0 0.0
2016-May-29 21:22N 01°13' E 103°41'0 0.1
2016-May-29 20:16N 01°13' E 103°41'0 0.0
2016-May-29 19:22N 01°13' E 103°41'0 0.1
2016-May-29 18:28N 01°13' E 103°41'0 0.3
2016-May-29 17:07N 01°13' E 103°41'0 0.1
2016-May-29 16:25N 01°13' E 103°41'0 0.0
2016-May-29 15:33N 01°13' E 103°41'1 0.1
2016-May-29 07:17N 01°14' E 103°41'0 0.0
2016-May-28 00:32N 01°14' E 103°41'0 0.0
2016-May-27 23:23N 01°14' E 103°41'0 0.0
2016-May-27 22:32N 01°14' E 103°41'0 0.0
2016-May-27 20:29N 01°14' E 103°41'0 0.0
2016-May-27 12:29N 01°14' E 103°41'0 0.0
2016-May-27 06:32N 01°14' E 103°41'0 0.0
2016-May-27 05:31N 01°14' E 103°41'0 0.2
2016-May-27 04:33N 01°13' E 103°41'2 1.7
2016-May-27 03:33N 01°13' E 103°39'5 4.7
2016-May-27 02:31N 01°12' E 103°35'8 7.5
2016-May-27 01:30N 01°11' E 103°27'6711.2
2016-May-26 19:29N 01°46' E 102°30'1210.5
2016-May-26 18:23N 01°51' E 102°20'  

Dump ship's entire track history